createdAt,value
2022-11-20T00:00:13.727Z,2.40
2022-11-20T00:01:46.569Z,2.40
2022-11-20T00:03:18.381Z,2.30
2022-11-20T00:04:51.092Z,2.30
2022-11-20T00:06:24.766Z,2.20
2022-11-20T00:07:57.475Z,2.20
2022-11-20T00:09:30.192Z,2.20
2022-11-20T00:11:10.310Z,2.20
2022-11-20T00:12:45.577Z,2.20
2022-11-20T00:14:18.436Z,2.30
2022-11-20T00:15:58.378Z,2.30
2022-11-20T00:17:31.155Z,2.40
2022-11-20T00:19:03.979Z,2.40
2022-11-20T00:20:35.733Z,2.40
2022-11-20T00:22:08.451Z,2.40
2022-11-20T00:23:41.427Z,2.40
2022-11-20T00:25:14.183Z,2.40
2022-11-20T00:26:48.231Z,2.50
2022-11-20T00:28:20.953Z,2.50
2022-11-20T00:29:53.665Z,2.40
2022-11-20T00:31:27.120Z,2.50
2022-11-20T00:32:59.864Z,2.40
2022-11-20T00:34:32.614Z,2.50
2022-11-20T00:36:07.431Z,2.50
2022-11-20T00:37:40.145Z,2.50
2022-11-20T00:39:12.890Z,2.50
2022-11-20T00:40:45.606Z,2.60
2022-11-20T00:42:19.875Z,2.60
2022-11-20T00:43:54.308Z,2.60
2022-11-20T00:45:26.074Z,2.60
2022-11-20T00:46:58.799Z,2.60
2022-11-20T00:48:31.911Z,2.60
2022-11-20T00:50:05.219Z,2.60
2022-11-20T00:51:37.947Z,2.60
2022-11-20T00:53:09.728Z,2.60
2022-11-20T00:54:42.457Z,2.60
2022-11-20T00:56:17.328Z,2.60
2022-11-20T00:57:51.377Z,2.60
2022-11-20T00:59:24.302Z,2.50
2022-11-20T01:01:01.062Z,2.60
2022-11-20T01:02:33.810Z,2.60
2022-11-20T01:04:07.011Z,2.60
2022-11-20T01:05:38.797Z,2.50
2022-11-20T01:07:11.607Z,2.60
2022-11-20T01:08:44.411Z,2.60
2022-11-20T01:10:17.255Z,2.60
2022-11-20T01:11:50.235Z,2.60
2022-11-20T01:13:38.253Z,2.60
2022-11-20T01:15:11.489Z,2.60
2022-11-20T01:16:46.864Z,2.70
2022-11-20T01:18:18.635Z,2.70
2022-11-20T01:19:51.727Z,2.70
2022-11-20T01:21:25.737Z,2.70
2022-11-20T01:22:57.519Z,2.60
2022-11-20T01:24:30.230Z,2.60
2022-11-20T01:26:03.501Z,2.60
2022-11-20T01:27:36.236Z,2.60
2022-11-20T01:29:15.017Z,2.60
2022-11-20T01:30:46.776Z,2.60
2022-11-20T01:32:19.502Z,2.60
2022-11-20T01:33:53.807Z,2.50
2022-11-20T01:35:25.577Z,2.50
2022-11-20T01:36:58.344Z,2.50
2022-11-20T01:38:31.056Z,2.50
2022-11-20T01:40:04.368Z,2.50
2022-11-20T01:41:54.835Z,2.50
2022-11-20T01:43:29.342Z,2.50
2022-11-20T01:45:03.779Z,2.50
2022-11-20T01:46:39.271Z,2.50
2022-11-20T01:48:12.001Z,2.50
2022-11-20T01:49:50.301Z,2.50
2022-11-20T01:51:31.420Z,2.60
2022-11-20T01:53:08.632Z,2.60
2022-11-20T01:54:46.001Z,2.60
2022-11-20T01:56:19.478Z,2.60
2022-11-20T01:57:52.720Z,2.60
2022-11-20T01:59:27.889Z,2.60
2022-11-20T02:01:02.546Z,2.60
2022-11-20T02:02:35.964Z,2.60
2022-11-20T02:04:10.371Z,2.60
2022-11-20T02:05:47.409Z,2.60
2022-11-20T02:07:21.128Z,2.60
2022-11-20T02:08:54.521Z,2.60
2022-11-20T02:10:29.022Z,2.60
2022-11-20T02:12:02.346Z,2.70
2022-11-20T02:13:44.223Z,2.70
2022-11-20T02:15:16.078Z,2.70
2022-11-20T02:16:51.436Z,2.70
2022-11-20T02:18:24.751Z,2.80
2022-11-20T02:19:57.539Z,2.80
2022-11-20T02:21:37.411Z,2.80
2022-11-20T02:23:16.107Z,2.80
2022-11-20T02:24:51.847Z,2.80
2022-11-20T02:26:25.896Z,2.80
2022-11-20T02:27:58.682Z,2.80
2022-11-20T02:29:38.327Z,2.90
2022-11-20T02:31:11.077Z,2.90
2022-11-20T02:32:44.078Z,2.90
2022-11-20T02:34:16.823Z,2.90
2022-11-20T02:35:48.608Z,2.90
2022-11-20T02:37:21.990Z,2.90
2022-11-20T02:38:54.157Z,2.90
2022-11-20T02:40:28.234Z,2.90
2022-11-20T02:42:03.987Z,2.90
2022-11-20T02:43:36.108Z,2.90
2022-11-20T02:45:09.957Z,2.90
2022-11-20T02:46:42.686Z,2.90
2022-11-20T02:48:15.452Z,2.90
2022-11-20T02:49:48.176Z,2.90
2022-11-20T02:51:20.956Z,2.90
2022-11-20T02:52:52.900Z,2.90
2022-11-20T02:54:25.834Z,2.90
2022-11-20T02:55:59.936Z,2.80
2022-11-20T02:57:32.683Z,2.90
2022-11-20T02:59:05.471Z,2.80
2022-11-20T03:00:38.212Z,2.90
2022-11-20T03:02:11.349Z,2.90
2022-11-20T03:03:44.091Z,2.90
2022-11-20T03:05:15.925Z,2.90
2022-11-20T03:06:48.664Z,2.90
2022-11-20T03:08:20.460Z,2.80
2022-11-20T03:09:53.355Z,2.90
2022-11-20T03:11:27.422Z,2.90
2022-11-20T03:13:00.193Z,2.90
2022-11-20T03:14:32.931Z,2.90
2022-11-20T03:16:13.600Z,2.90
2022-11-20T03:17:45.387Z,2.90
2022-11-20T03:19:18.277Z,2.90
2022-11-20T03:20:50.187Z,2.90
2022-11-20T03:22:22.896Z,2.90
2022-11-20T03:23:55.686Z,2.90
2022-11-20T03:25:27.624Z,2.90
2022-11-20T03:27:01.695Z,2.90
2022-11-20T03:28:33.451Z,2.90
2022-11-20T03:30:07.391Z,2.90
2022-11-20T03:31:41.537Z,2.90
2022-11-20T03:33:14.266Z,2.90
2022-11-20T03:34:46.051Z,2.90
2022-11-20T03:36:20.391Z,3.00
2022-11-20T03:37:53.145Z,3.00
2022-11-20T03:39:25.848Z,3.00
2022-11-20T03:41:01.359Z,3.00
2022-11-20T03:42:47.280Z,3.00
2022-11-20T03:44:23.549Z,3.00
2022-11-20T03:45:56.286Z,3.10
2022-11-20T03:47:29.473Z,3.10
2022-11-20T03:49:02.437Z,3.10
2022-11-20T03:50:34.586Z,3.10
2022-11-20T03:52:07.298Z,3.10
2022-11-20T03:53:40.355Z,3.10
2022-11-20T03:55:13.203Z,3.10
2022-11-20T03:56:46.878Z,3.10
2022-11-20T03:58:20.019Z,3.10
2022-11-20T03:59:52.771Z,3.10
2022-11-20T04:01:27.374Z,3.10
2022-11-20T04:03:00.594Z,3.10
2022-11-20T04:04:33.370Z,3.10
2022-11-20T04:06:07.923Z,3.10
2022-11-20T04:07:40.719Z,3.10
2022-11-20T04:09:13.568Z,3.10
2022-11-20T04:10:46.298Z,3.10
2022-11-20T04:12:19.031Z,3.10
2022-11-20T04:13:55.279Z,3.20
2022-11-20T04:15:28.021Z,3.20
2022-11-20T04:16:59.766Z,3.20
2022-11-20T04:18:32.461Z,3.20
2022-11-20T04:20:06.194Z,3.20
2022-11-20T04:21:39.031Z,3.20
2022-11-20T04:23:11.770Z,3.20
2022-11-20T04:24:43.567Z,3.20
2022-11-20T04:26:16.280Z,3.20
2022-11-20T04:27:48.045Z,3.20
2022-11-20T04:29:22.264Z,3.20
2022-11-20T04:30:55.140Z,3.20
2022-11-20T04:32:27.904Z,3.20
2022-11-20T04:34:02.251Z,3.20
2022-11-20T04:35:36.009Z,3.20
2022-11-20T04:37:08.732Z,3.20
2022-11-20T04:38:41.019Z,3.30
2022-11-20T04:40:14.385Z,3.20
2022-11-20T04:41:47.082Z,3.30
2022-11-20T04:43:18.888Z,3.30
2022-11-20T04:44:52.962Z,3.30
2022-11-20T04:46:25.670Z,3.30
2022-11-20T04:47:58.384Z,3.30
2022-11-20T04:49:30.246Z,3.30
2022-11-20T04:51:04.927Z,3.30
2022-11-20T04:52:37.850Z,3.30
2022-11-20T04:54:11.289Z,3.30
2022-11-20T04:55:44.023Z,3.40
2022-11-20T04:57:16.311Z,3.40
2022-11-20T04:58:49.067Z,3.30
2022-11-20T05:00:23.215Z,3.40
2022-11-20T05:01:55.389Z,3.40
2022-11-20T05:03:28.170Z,3.40
2022-11-20T05:05:00.868Z,3.40
2022-11-20T05:06:33.973Z,3.40
2022-11-20T05:08:06.722Z,3.40
2022-11-20T05:09:39.494Z,3.40
2022-11-20T05:11:13.537Z,3.40
2022-11-20T05:12:46.238Z,3.40
2022-11-20T05:14:18.987Z,3.40
2022-11-20T05:15:53.058Z,3.40
2022-11-20T05:17:25.777Z,3.40
2022-11-20T05:18:58.640Z,3.40
2022-11-20T05:20:31.367Z,3.40
2022-11-20T05:22:04.108Z,3.40
2022-11-20T05:23:37.531Z,3.40
2022-11-20T05:25:09.624Z,3.40
2022-11-20T05:26:42.354Z,3.40
2022-11-20T05:28:14.111Z,3.40
2022-11-20T05:29:46.863Z,3.40
2022-11-20T05:31:27.285Z,3.40
2022-11-20T05:33:00.989Z,3.40
2022-11-20T05:34:33.821Z,3.40
2022-11-20T05:36:07.194Z,3.50
2022-11-20T05:37:39.921Z,3.40
2022-11-20T05:39:12.671Z,3.40
2022-11-20T05:40:44.503Z,3.40
2022-11-20T05:42:32.492Z,3.40
2022-11-20T05:44:05.508Z,3.40
2022-11-20T05:45:39.056Z,3.40
2022-11-20T05:47:13.122Z,3.40
2022-11-20T05:48:47.171Z,3.40
2022-11-20T05:50:19.904Z,3.40
2022-11-20T05:51:52.626Z,3.40
2022-11-20T05:53:27.645Z,3.40
2022-11-20T05:55:00.576Z,3.40
2022-11-20T05:56:33.514Z,3.40
2022-11-20T05:58:06.220Z,3.40
2022-11-20T05:59:39.313Z,3.40
2022-11-20T06:01:14.924Z,3.50
2022-11-20T06:02:49.024Z,3.50
2022-11-20T06:04:21.787Z,3.50
2022-11-20T06:05:54.519Z,3.50
2022-11-20T06:07:27.357Z,3.50
2022-11-20T06:09:00.285Z,3.50
2022-11-20T06:10:32.041Z,3.50
2022-11-20T06:12:05.185Z,3.50
2022-11-20T06:13:42.058Z,3.60
2022-11-20T06:15:15.438Z,3.50
2022-11-20T06:16:48.191Z,3.50
2022-11-20T06:18:22.331Z,3.40
2022-11-20T06:19:55.035Z,3.50
2022-11-20T06:21:27.876Z,3.40
2022-11-20T06:23:00.575Z,3.40
2022-11-20T06:24:33.300Z,3.40
2022-11-20T06:26:08.042Z,3.50
2022-11-20T06:27:40.776Z,3.40
2022-11-20T06:29:13.712Z,3.40
2022-11-20T06:30:47.747Z,3.40
2022-11-20T06:32:20.484Z,3.40
2022-11-20T06:33:54.799Z,3.40
2022-11-20T06:35:27.534Z,3.40
2022-11-20T06:37:00.268Z,3.40
2022-11-20T06:38:33.041Z,3.50
2022-11-20T06:40:07.102Z,3.50
2022-11-20T06:41:39.839Z,3.50
2022-11-20T06:43:12.635Z,3.50
2022-11-20T06:44:45.706Z,3.50
2022-11-20T06:46:19.844Z,3.50
2022-11-20T06:47:52.578Z,3.50
2022-11-20T06:49:27.366Z,3.50
2022-11-20T06:51:00.628Z,3.50
2022-11-20T06:52:33.418Z,3.50
2022-11-20T06:54:06.542Z,3.50
2022-11-20T06:55:43.511Z,3.50
2022-11-20T06:57:16.275Z,3.50
2022-11-20T06:58:48.988Z,3.50
2022-11-20T07:00:21.880Z,3.50
2022-11-20T07:01:54.610Z,3.40
2022-11-20T07:03:26.388Z,3.40
2022-11-20T07:05:00.509Z,3.40
2022-11-20T07:06:33.285Z,3.40
2022-11-20T07:08:06.856Z,3.40
2022-11-20T07:09:39.591Z,3.40
2022-11-20T07:11:14.534Z,3.40
2022-11-20T07:12:51.761Z,3.50
2022-11-20T07:14:24.497Z,3.50
2022-11-20T07:15:56.308Z,3.50
2022-11-20T07:17:29.070Z,3.50
2022-11-20T07:19:01.875Z,3.50
2022-11-20T07:20:35.911Z,3.50
2022-11-20T07:22:08.627Z,3.50
2022-11-20T07:23:41.351Z,3.50
2022-11-20T07:25:14.087Z,3.60
2022-11-20T07:26:48.819Z,3.50
2022-11-20T07:28:21.522Z,3.50
2022-11-20T07:29:54.224Z,3.50
2022-11-20T07:31:26.936Z,3.50
2022-11-20T07:32:59.698Z,3.50
2022-11-20T07:34:32.426Z,3.50
2022-11-20T07:36:07.239Z,3.50
2022-11-20T07:37:39.959Z,3.60
2022-11-20T07:39:12.676Z,3.50
2022-11-20T07:40:45.439Z,3.50
2022-11-20T07:42:18.169Z,3.50
2022-11-20T07:43:50.889Z,3.50
2022-11-20T07:45:25.630Z,3.50
2022-11-20T07:46:58.364Z,3.50
2022-11-20T07:48:31.069Z,3.50
2022-11-20T07:50:03.808Z,3.60
2022-11-20T07:51:37.905Z,3.60
2022-11-20T07:53:10.632Z,3.70
2022-11-20T07:54:43.342Z,3.60
2022-11-20T07:56:16.026Z,3.70
2022-11-20T07:57:55.765Z,3.70
2022-11-20T07:59:28.492Z,3.70
2022-11-20T08:01:05.241Z,3.70
2022-11-20T08:02:40.090Z,3.70
2022-11-20T08:04:13.273Z,3.70
2022-11-20T08:05:46.004Z,3.80
2022-11-20T08:07:20.217Z,3.80
2022-11-20T08:08:53.373Z,3.80
2022-11-20T08:10:26.262Z,3.90
2022-11-20T08:12:16.598Z,3.90
2022-11-20T08:14:07.091Z,3.90
2022-11-20T08:15:41.452Z,3.90
2022-11-20T08:17:14.222Z,3.90
2022-11-20T08:18:46.919Z,3.90
2022-11-20T08:20:19.675Z,4.00
2022-11-20T08:21:52.520Z,4.00
2022-11-20T08:23:26.608Z,4.00
2022-11-20T08:24:59.319Z,4.00
2022-11-20T08:26:32.046Z,4.00
2022-11-20T08:28:18.342Z,4.00
2022-11-20T08:29:53.316Z,4.00
2022-11-20T08:31:27.358Z,4.00
2022-11-20T08:33:03.446Z,4.00
2022-11-20T08:34:36.131Z,4.00
2022-11-20T08:36:09.368Z,4.10
2022-11-20T08:37:42.845Z,4.10
2022-11-20T08:39:16.975Z,4.10
2022-11-20T08:41:03.616Z,4.10
2022-11-20T08:42:36.344Z,4.20
2022-11-20T08:44:10.066Z,4.20
2022-11-20T08:45:42.787Z,4.30
2022-11-20T08:47:15.505Z,4.30
2022-11-20T08:48:47.280Z,4.30
2022-11-20T08:50:20.416Z,4.30
2022-11-20T08:51:56.006Z,4.30
2022-11-20T08:53:27.910Z,4.40
2022-11-20T08:55:01.980Z,4.40
2022-11-20T08:56:35.061Z,4.40
2022-11-20T08:58:07.999Z,4.40
2022-11-20T09:01:33.429Z,4.40
2022-11-20T09:03:06.155Z,4.50
2022-11-20T09:04:38.880Z,4.40
2022-11-20T09:06:11.586Z,4.50
2022-11-20T09:07:44.375Z,4.50
2022-11-20T09:09:17.116Z,4.50
2022-11-20T09:10:55.111Z,4.40
2022-11-20T09:12:27.844Z,4.50
2022-11-20T09:14:00.977Z,4.50
2022-11-20T09:15:34.685Z,4.50
2022-11-20T09:17:08.482Z,4.50
2022-11-20T09:18:41.289Z,4.50
2022-11-20T09:20:17.106Z,4.50
2022-11-20T09:21:49.810Z,4.50
2022-11-20T09:23:22.540Z,4.60
2022-11-20T09:24:55.267Z,4.60
2022-11-20T09:26:29.316Z,4.60
2022-11-20T09:28:01.140Z,4.60
2022-11-20T09:29:33.946Z,4.60
2022-11-20T09:31:07.719Z,4.60
2022-11-20T09:32:41.210Z,4.60
2022-11-20T09:34:13.927Z,4.60
2022-11-20T09:35:46.697Z,4.60
2022-11-20T09:37:19.392Z,4.60
2022-11-20T09:38:52.108Z,4.50
2022-11-20T09:40:27.785Z,4.60
2022-11-20T09:42:26.660Z,4.50
2022-11-20T09:44:09.318Z,4.50
2022-11-20T09:46:06.784Z,4.50
2022-11-20T09:47:55.607Z,4.50
2022-11-20T09:49:43.059Z,4.50
2022-11-20T09:51:25.539Z,4.50
2022-11-20T09:53:18.350Z,4.50
2022-11-20T09:54:51.941Z,4.50
2022-11-20T09:56:25.433Z,4.50
2022-11-20T09:58:01.451Z,4.50
2022-11-20T09:59:38.446Z,4.60
2022-11-20T10:01:15.033Z,4.60
2022-11-20T10:02:52.443Z,4.60
2022-11-20T10:04:26.110Z,4.60
2022-11-20T10:06:02.419Z,4.70
2022-11-20T10:07:41.253Z,4.70
2022-11-20T10:09:24.762Z,4.70
2022-11-20T10:11:06.444Z,4.80
2022-11-20T10:12:57.145Z,4.80
2022-11-20T10:14:39.623Z,4.70
2022-11-20T10:16:26.103Z,4.70
2022-11-20T10:18:20.611Z,4.80
2022-11-20T10:20:04.829Z,4.70
2022-11-20T10:21:46.352Z,4.80
2022-11-20T10:23:46.843Z,4.80
2022-11-20T10:25:22.232Z,4.90
2022-11-20T10:27:05.389Z,4.90
2022-11-20T10:28:57.398Z,4.90
2022-11-20T10:30:37.372Z,4.80
2022-11-20T10:32:16.348Z,4.90
2022-11-20T10:34:11.020Z,4.90
2022-11-20T10:35:46.942Z,4.90
2022-11-20T10:37:23.180Z,4.90
2022-11-20T10:39:00.559Z,5.00
2022-11-20T10:40:39.783Z,5.00
2022-11-20T10:42:16.659Z,5.00
2022-11-20T10:43:53.640Z,4.90
2022-11-20T10:45:47.372Z,5.00
2022-11-20T10:47:21.948Z,5.00
2022-11-20T10:48:54.694Z,5.00
2022-11-20T10:50:28.162Z,5.00
2022-11-20T10:52:10.914Z,5.10
2022-11-20T10:53:53.075Z,5.10
2022-11-20T10:55:34.828Z,5.10
2022-11-20T10:57:14.168Z,5.20
2022-11-20T10:58:56.365Z,5.20
2022-11-20T11:00:29.217Z,5.20
2022-11-20T11:02:03.633Z,5.30
2022-11-20T11:03:36.430Z,5.30
2022-11-20T11:05:33.175Z,5.30
2022-11-20T11:07:12.823Z,5.30
2022-11-20T11:08:46.889Z,5.30
2022-11-20T11:10:23.152Z,5.40
2022-11-20T11:11:55.884Z,5.40
2022-11-20T11:13:30.321Z,5.40
2022-11-20T11:15:03.040Z,5.40
2022-11-20T11:16:36.630Z,5.40
2022-11-20T11:18:12.951Z,5.40
2022-11-20T11:19:44.694Z,5.40
2022-11-20T11:21:24.813Z,5.40
2022-11-20T11:22:59.558Z,5.40
2022-11-20T11:24:42.118Z,5.40
2022-11-20T11:26:22.406Z,5.40
2022-11-20T11:27:57.158Z,5.50
2022-11-20T11:29:31.588Z,5.50
2022-11-20T11:31:04.335Z,5.50
2022-11-20T11:32:36.204Z,5.60
2022-11-20T11:34:14.619Z,5.60
2022-11-20T11:35:51.415Z,5.60
2022-11-20T11:37:24.555Z,5.70
2022-11-20T11:38:57.378Z,5.70
2022-11-20T11:40:33.153Z,5.70
2022-11-20T11:42:06.088Z,5.70
2022-11-20T11:43:57.103Z,5.70
2022-11-20T11:45:30.383Z,5.70
2022-11-20T11:47:04.364Z,5.70
2022-11-20T11:48:37.111Z,5.70
2022-11-20T11:50:20.488Z,5.70
2022-11-20T11:52:07.018Z,5.70
2022-11-20T11:53:43.343Z,5.80
2022-11-20T11:55:22.667Z,5.80
2022-11-20T11:56:55.815Z,5.90
2022-11-20T11:58:43.677Z,5.90
2022-11-20T12:00:18.554Z,5.90
2022-11-20T12:01:55.476Z,6.00
2022-11-20T12:03:35.239Z,6.00
2022-11-20T12:05:19.498Z,6.00
2022-11-20T12:06:59.700Z,6.10
2022-11-20T12:08:39.048Z,6.00
2022-11-20T12:10:19.943Z,6.00
2022-11-20T12:12:00.964Z,6.00
2022-11-20T12:13:44.611Z,6.00
2022-11-20T12:15:27.530Z,6.00
2022-11-20T12:17:00.256Z,6.00
2022-11-20T12:18:33.271Z,6.10
2022-11-20T12:20:13.926Z,6.10
2022-11-20T12:22:01.968Z,6.10
2022-11-20T12:23:46.024Z,6.10
2022-11-20T12:25:23.309Z,6.20
2022-11-20T12:27:07.401Z,6.20
2022-11-20T12:28:53.043Z,6.30
2022-11-20T12:30:26.256Z,6.30
2022-11-20T12:32:21.029Z,6.40
2022-11-20T12:34:15.598Z,6.40
2022-11-20T12:36:08.024Z,6.40
2022-11-20T12:37:54.237Z,6.50
2022-11-20T12:39:35.918Z,6.50
2022-11-20T12:41:40.612Z,6.50
2022-11-20T12:43:39.302Z,6.60
2022-11-20T12:45:36.742Z,6.60
2022-11-20T12:47:19.010Z,6.60
2022-11-20T12:49:13.750Z,6.60
2022-11-20T12:51:14.141Z,6.60
2022-11-20T12:52:51.619Z,6.60
2022-11-20T12:54:35.961Z,6.70
2022-11-20T12:56:21.495Z,6.70
2022-11-20T12:57:58.945Z,6.70
2022-11-20T12:59:49.341Z,6.70
2022-11-20T13:01:41.802Z,6.70
2022-11-20T13:03:36.381Z,6.70
2022-11-20T13:05:20.677Z,6.70
2022-11-20T13:06:53.642Z,6.70
2022-11-20T13:08:30.183Z,6.70
2022-11-20T13:10:03.306Z,6.70
2022-11-20T13:11:45.563Z,6.60
2022-11-20T13:13:25.402Z,6.60
2022-11-20T13:15:07.036Z,6.60
2022-11-20T13:16:46.897Z,6.60
2022-11-20T13:18:20.463Z,6.70
2022-11-20T13:19:55.987Z,6.70
2022-11-20T13:21:38.832Z,6.70
2022-11-20T13:23:11.655Z,6.70
2022-11-20T13:24:53.217Z,6.70
2022-11-20T13:26:26.723Z,6.70
2022-11-20T13:28:01.495Z,6.70
2022-11-20T13:29:35.349Z,6.80
2022-11-20T13:31:26.383Z,6.80
2022-11-20T13:33:05.801Z,6.90
2022-11-20T13:34:38.530Z,6.90
2022-11-20T13:36:25.532Z,6.90
2022-11-20T13:38:07.807Z,6.90
2022-11-20T13:39:40.602Z,6.80
2022-11-20T13:41:34.229Z,6.80
2022-11-20T13:43:20.091Z,6.80
2022-11-20T13:44:56.314Z,6.80
2022-11-20T13:46:38.690Z,6.80
2022-11-20T13:48:23.401Z,6.80
2022-11-20T13:49:59.618Z,6.70
2022-11-20T13:51:41.963Z,6.70
2022-11-20T13:53:29.494Z,6.60
2022-11-20T13:55:13.392Z,6.60
2022-11-20T13:57:01.047Z,6.60
2022-11-20T13:58:46.731Z,6.60
2022-11-20T14:00:21.286Z,6.60
2022-11-20T14:01:55.282Z,6.70
2022-11-20T14:03:58.913Z,6.70
2022-11-20T14:05:25.479Z,6.70
2022-11-20T14:06:59.085Z,6.80
2022-11-20T14:08:38.732Z,6.80
2022-11-20T14:10:27.019Z,6.80
2022-11-20T14:12:06.177Z,6.90
2022-11-20T14:13:38.901Z,7.00
2022-11-20T14:15:26.583Z,7.00
2022-11-20T14:17:08.506Z,7.00
2022-11-20T14:18:41.231Z,7.10
2022-11-20T14:20:19.667Z,7.10
2022-11-20T14:21:56.445Z,7.20
2022-11-20T14:23:31.203Z,7.20
2022-11-20T14:25:07.857Z,7.20
2022-11-20T14:26:44.062Z,7.20
2022-11-20T14:28:27.080Z,7.30
2022-11-20T14:30:03.452Z,7.30
2022-11-20T14:31:36.259Z,7.30
2022-11-20T14:33:09.050Z,7.30
2022-11-20T14:34:44.835Z,7.30
2022-11-20T14:36:21.598Z,7.20
2022-11-20T14:37:54.810Z,7.20
2022-11-20T14:39:32.313Z,7.20
2022-11-20T14:41:09.281Z,7.20
2022-11-20T14:42:46.033Z,7.10
2022-11-20T14:44:22.541Z,7.20
2022-11-20T14:46:00.159Z,7.20
2022-11-20T14:47:34.101Z,7.20
2022-11-20T14:49:07.768Z,7.20
2022-11-20T14:50:41.074Z,7.20
2022-11-20T14:52:16.655Z,7.30
2022-11-20T14:53:49.372Z,7.30
2022-11-20T14:55:33.062Z,7.30
2022-11-20T14:57:06.292Z,7.30
2022-11-20T14:58:39.104Z,7.30
2022-11-20T15:00:23.226Z,7.30
2022-11-20T15:01:58.657Z,7.40
2022-11-20T15:03:35.906Z,7.30
2022-11-20T15:05:09.049Z,7.40
2022-11-20T15:06:52.249Z,7.40
2022-11-20T15:08:24.963Z,7.40
2022-11-20T15:10:06.640Z,7.40
2022-11-20T15:11:39.359Z,7.40
2022-11-20T15:13:15.284Z,7.40
2022-11-20T15:14:48.064Z,7.40
2022-11-20T15:16:24.507Z,7.40
2022-11-20T15:17:57.712Z,7.40
2022-11-20T15:19:30.892Z,7.40
2022-11-20T15:21:05.957Z,7.40
2022-11-20T15:22:38.711Z,7.40
2022-11-20T15:24:11.896Z,7.40
2022-11-20T15:25:44.866Z,7.40
2022-11-20T15:27:17.710Z,7.40
2022-11-20T15:28:51.908Z,7.50
2022-11-20T15:30:25.052Z,7.50
2022-11-20T15:31:59.127Z,7.50
2022-11-20T15:33:32.354Z,7.50
2022-11-20T15:35:05.502Z,7.50
2022-11-20T15:36:38.236Z,7.50
2022-11-20T15:38:11.132Z,7.50
2022-11-20T15:39:43.847Z,7.50
2022-11-20T15:41:16.608Z,7.50
2022-11-20T15:43:05.755Z,7.50
2022-11-20T15:44:41.008Z,7.50
2022-11-20T15:46:16.413Z,7.50
2022-11-20T15:47:49.540Z,7.60
2022-11-20T15:49:23.710Z,7.60
2022-11-20T15:50:59.773Z,7.60
2022-11-20T15:52:40.353Z,7.60
2022-11-20T15:54:16.664Z,7.60
2022-11-20T15:55:49.396Z,7.60
2022-11-20T15:57:22.123Z,7.60
2022-11-20T15:58:54.962Z,7.60
2022-11-20T16:00:27.698Z,7.60
2022-11-20T16:02:00.459Z,7.60
2022-11-20T16:03:34.568Z,7.60
2022-11-20T16:05:13.345Z,7.60
2022-11-20T16:06:46.076Z,7.60
2022-11-20T16:08:18.808Z,7.60
2022-11-20T16:09:51.522Z,7.60
2022-11-20T16:11:24.271Z,7.60
2022-11-20T16:13:14.676Z,7.50
2022-11-20T16:15:08.227Z,7.60
2022-11-20T16:16:45.102Z,7.50
2022-11-20T16:18:20.939Z,7.50
2022-11-20T16:19:54.974Z,7.50
2022-11-20T16:21:31.948Z,7.60
2022-11-20T16:23:05.006Z,7.50
2022-11-20T16:24:37.751Z,7.50
2022-11-20T16:26:15.014Z,7.50
2022-11-20T16:27:47.708Z,7.50
2022-11-20T16:29:20.577Z,7.60
2022-11-20T16:30:53.322Z,7.60
2022-11-20T16:32:26.073Z,7.60
2022-11-20T16:34:01.231Z,7.60
2022-11-20T16:35:35.286Z,7.60
2022-11-20T16:37:09.045Z,7.50
2022-11-20T16:38:43.404Z,7.60
2022-11-20T16:40:16.555Z,7.50
2022-11-20T16:41:49.284Z,7.50
2022-11-20T16:43:22.038Z,7.50
2022-11-20T16:44:54.757Z,7.50
2022-11-20T16:46:28.834Z,7.50
2022-11-20T16:48:01.553Z,7.50
2022-11-20T16:49:34.282Z,7.50
2022-11-20T16:51:10.883Z,7.40
2022-11-20T16:52:43.619Z,7.40
2022-11-20T16:54:20.582Z,7.40
2022-11-20T16:55:54.043Z,7.40
2022-11-20T16:57:29.424Z,7.40
2022-11-20T16:59:03.440Z,7.40
2022-11-20T17:00:37.793Z,7.40
2022-11-20T17:02:10.727Z,7.40
2022-11-20T17:03:45.087Z,7.30
2022-11-20T17:05:17.906Z,7.30
2022-11-20T17:06:52.067Z,7.30
2022-11-20T17:08:24.816Z,7.30
2022-11-20T17:09:58.027Z,7.30
2022-11-20T17:11:30.733Z,7.30
2022-11-20T17:13:03.682Z,7.30
2022-11-20T17:14:36.995Z,7.30
2022-11-20T17:16:11.806Z,7.30
2022-11-20T17:17:44.818Z,7.30
2022-11-20T17:19:17.658Z,7.30
2022-11-20T17:20:53.303Z,7.30
2022-11-20T17:22:27.717Z,7.30
2022-11-20T17:24:03.178Z,7.30
2022-11-20T17:25:35.894Z,7.30
2022-11-20T17:27:08.652Z,7.30
2022-11-20T17:28:41.887Z,7.30
2022-11-20T17:30:14.871Z,7.30
2022-11-20T17:31:48.539Z,7.40
2022-11-20T17:33:21.258Z,7.30
2022-11-20T17:34:53.999Z,7.30
2022-11-20T17:36:27.403Z,7.30
2022-11-20T17:38:01.455Z,7.30
2022-11-20T17:39:34.167Z,7.30
2022-11-20T17:41:08.695Z,7.30
2022-11-20T17:42:41.425Z,7.30
2022-11-20T17:44:14.398Z,7.30
2022-11-20T17:45:47.208Z,7.30
2022-11-20T17:47:19.952Z,7.20
2022-11-20T17:48:53.349Z,7.20
2022-11-20T17:50:26.144Z,7.20
2022-11-20T17:51:58.871Z,7.20
2022-11-20T17:53:37.218Z,7.20
2022-11-20T17:55:10.549Z,7.20
2022-11-20T17:57:00.675Z,7.20
2022-11-20T17:58:32.431Z,7.20
2022-11-20T18:00:05.907Z,7.20
2022-11-20T18:01:39.348Z,7.20
2022-11-20T18:03:12.137Z,7.20
2022-11-20T18:04:44.882Z,7.20
2022-11-20T18:06:19.611Z,7.20
2022-11-20T18:07:54.485Z,7.20
2022-11-20T18:09:28.806Z,7.20
2022-11-20T18:11:01.525Z,7.20
2022-11-20T18:12:34.431Z,7.20
2022-11-20T18:14:28.890Z,7.20
2022-11-20T18:16:07.870Z,7.20
2022-11-20T18:17:40.594Z,7.20
2022-11-20T18:19:15.799Z,7.20
2022-11-20T18:20:54.384Z,7.20
2022-11-20T18:22:27.129Z,7.20
2022-11-20T18:24:00.057Z,7.20
2022-11-20T18:25:34.132Z,7.20
2022-11-20T18:27:08.175Z,7.20
2022-11-20T18:28:40.894Z,7.20
2022-11-20T18:30:15.116Z,7.20
2022-11-20T18:31:46.885Z,7.20
2022-11-20T18:33:22.132Z,7.10
2022-11-20T18:34:58.249Z,7.10
2022-11-20T18:36:32.505Z,7.10
2022-11-20T18:38:05.252Z,7.10
2022-11-20T18:39:37.979Z,7.10
2022-11-20T18:41:33.468Z,7.10
2022-11-20T18:43:24.223Z,7.10
2022-11-20T18:44:56.239Z,7.10
2022-11-20T18:46:28.992Z,7.10
2022-11-20T18:48:01.743Z,7.00
2022-11-20T18:49:34.515Z,7.00
2022-11-20T18:51:07.795Z,7.00
2022-11-20T18:52:44.231Z,7.00
2022-11-20T18:54:17.011Z,7.00
2022-11-20T18:55:49.724Z,7.00
2022-11-20T18:57:25.673Z,7.00
2022-11-20T18:59:01.504Z,7.00
2022-11-20T19:00:34.486Z,7.00
2022-11-20T19:02:07.765Z,7.00
2022-11-20T19:03:40.499Z,6.90
2022-11-20T19:05:15.400Z,6.90
2022-11-20T19:06:49.357Z,6.90
2022-11-20T19:08:22.067Z,6.90
2022-11-20T19:09:57.454Z,6.90
2022-11-20T19:11:32.652Z,6.90
2022-11-20T19:13:07.082Z,6.90
2022-11-20T19:14:40.025Z,6.90
2022-11-20T19:16:16.298Z,6.80
2022-11-20T19:17:49.134Z,6.80
2022-11-20T19:19:22.409Z,6.80
2022-11-20T19:20:55.268Z,6.80
2022-11-20T19:22:28.009Z,6.80
2022-11-20T19:24:02.258Z,6.80
2022-11-20T19:25:38.124Z,6.80
2022-11-20T19:27:11.153Z,6.80
2022-11-20T19:28:45.688Z,6.80
2022-11-20T19:30:18.439Z,6.80
2022-11-20T19:31:51.813Z,6.70
2022-11-20T19:33:24.552Z,6.80
2022-11-20T19:34:57.315Z,6.70
2022-11-20T19:36:31.994Z,6.70
2022-11-20T19:38:05.767Z,6.70
2022-11-20T19:39:38.547Z,6.70
2022-11-20T19:41:11.763Z,6.70
2022-11-20T19:42:44.511Z,6.70
2022-11-20T19:44:19.311Z,6.70
2022-11-20T19:45:52.060Z,6.70
2022-11-20T19:47:45.999Z,6.70
2022-11-20T19:49:17.856Z,6.60
2022-11-20T19:50:51.042Z,6.70
2022-11-20T19:52:23.760Z,6.70
2022-11-20T19:53:57.103Z,6.60
2022-11-20T19:55:29.915Z,6.60
2022-11-20T19:57:02.667Z,6.60
2022-11-20T19:58:36.066Z,6.60
2022-11-20T20:00:12.203Z,6.60
2022-11-20T20:01:45.321Z,6.60
2022-11-20T20:03:18.695Z,6.60
2022-11-20T20:04:51.436Z,6.60
2022-11-20T20:06:26.101Z,6.60
2022-11-20T20:07:58.865Z,6.60
2022-11-20T20:09:31.631Z,6.60
2022-11-20T20:11:11.928Z,6.60
2022-11-20T20:12:44.747Z,6.60
2022-11-20T20:14:18.244Z,6.60
2022-11-20T20:15:52.615Z,6.60
2022-11-20T20:17:25.351Z,6.60
2022-11-20T20:18:59.191Z,6.60
2022-11-20T20:20:31.907Z,6.60
2022-11-20T20:22:04.651Z,6.60
2022-11-20T20:23:37.755Z,6.60
2022-11-20T20:25:10.794Z,6.60
2022-11-20T20:26:43.563Z,6.60
2022-11-20T20:28:16.728Z,6.60
2022-11-20T20:29:49.443Z,6.50
2022-11-20T20:31:24.859Z,6.50
2022-11-20T20:32:57.604Z,6.50
2022-11-20T20:34:31.967Z,6.50
2022-11-20T20:36:05.096Z,6.50
2022-11-20T20:37:37.842Z,6.50
2022-11-20T20:39:11.719Z,6.50
2022-11-20T20:40:48.810Z,6.50
2022-11-20T20:42:21.532Z,6.50
2022-11-20T20:44:12.325Z,6.50
2022-11-20T20:45:49.001Z,6.50
2022-11-20T20:47:23.095Z,6.50
2022-11-20T20:48:55.814Z,6.50
2022-11-20T20:50:28.657Z,6.50
2022-11-20T20:52:02.178Z,6.50
2022-11-20T20:53:34.900Z,6.50
2022-11-20T20:55:08.445Z,6.50
2022-11-20T20:56:41.305Z,6.50
2022-11-20T20:58:14.071Z,6.50
2022-11-20T20:59:46.804Z,6.50
2022-11-20T21:01:20.936Z,6.50
2022-11-20T21:02:55.172Z,6.50
2022-11-20T21:04:27.882Z,6.50
2022-11-20T21:06:00.685Z,6.50
2022-11-20T21:07:33.472Z,6.50
2022-11-20T21:09:06.326Z,6.40
2022-11-20T21:10:39.066Z,6.40
2022-11-20T21:12:11.794Z,6.40
2022-11-20T21:13:46.237Z,6.40